Time;durP1;ratioP1;P1;durP2;ratioP2;P2;SDS_P1;SDS_P2;PMS_P1;PMS_P2;Temp;Humidity;BMP_temperature;BMP_pressure;BME280_temperature;BME280_humidity;BME280_pressure;Samples;Min_cycle;Max_cycle;Signal;HPM_P1;HPM_P2
2022/03/12 00:00:48;;;;;;;8.20;5.20;;;6.80;67.60;;;;;;5051462;28;20052;-77
2022/03/12 00:03:17;;;;;;;8.60;4.55;;;6.80;68.40;;;;;;5047525;28;20044;-78
2022/03/12 00:05:54;;;;;;;8.48;4.97;;;5.30;67.10;;;;;;5050224;28;20045;-79
2022/03/12 00:08:27;;;;;;;6.75;4.10;;;6.50;67.80;;;;;;5066156;28;20173;-78
2022/03/12 00:10:56;;;;;;;12.07;5.05;;;6.80;67.80;;;;;;5066350;28;20097;-78
2022/03/12 00:13:21;;;;;;;7.68;4.80;;;6.70;68.70;;;;;;5038400;28;20041;-78
2022/03/12 00:15:50;;;;;;;8.35;5.30;;;8.50;68.80;;;;;;5068480;28;20045;-79
2022/03/12 00:18:20;;;;;;;7.57;4.25;;;6.70;68.10;;;;;;5052397;28;20101;-79
2022/03/12 00:20:50;;;;;;;8.07;5.05;;;6.30;67.40;;;;;;5052423;28;20051;-77
2022/03/12 00:23:18;;;;;;;6.40;4.57;;;8.90;70.00;;;;;;5070415;28;20056;-79
2022/03/12 00:25:45;;;;;;;6.97;4.95;;;8.20;68.50;;;;;;5052579;28;20044;-78
2022/03/12 00:28:12;;;;;;;5.72;4.43;;;6.70;67.80;;;;;;5051436;28;20049;-78
2022/03/12 00:30:39;;;;;;;7.90;4.90;;;6.70;68.50;;;;;;5052757;28;20037;-78
2022/03/12 00:33:05;;;;;;;9.38;4.72;;;6.70;68.10;;;;;;5068115;28;20056;-78
2022/03/12 00:35:31;;;;;;;5.43;4.50;;;6.60;68.40;;;;;;5068871;28;20037;-78
2022/03/12 00:37:57;;;;;;;9.80;5.13;;;6.90;68.80;;;;;;5051136;28;20502;-78
2022/03/12 00:40:23;;;;;;;10.32;5.18;;;6.50;68.30;;;;;;5055775;28;20063;-78
2022/03/12 00:42:49;;;;;;;8.05;4.35;;;6.70;68.20;;;;;;5072508;28;20250;-79
2022/03/12 00:45:15;;;;;;;9.43;4.90;;;6.70;68.10;;;;;;5068678;28;20044;-78
2022/03/12 00:47:41;;;;;;;9.40;4.13;;;6.60;68.20;;;;;;5048307;28;20476;-80
2022/03/12 00:50:07;;;;;;;8.38;4.65;;;6.70;68.20;;;;;;5051415;28;20048;-78
2022/03/12 00:52:37;;;;;;;7.43;5.10;;;6.70;68.10;;;;;;5070334;28;20053;-80
2022/03/12 00:55:03;;;;;;;6.90;4.65;;;6.60;69.10;;;;;;5067977;28;20652;-79
2022/03/12 00:57:29;;;;;;;10.35;4.70;;;6.70;68.50;;;;;;5068663;28;20365;-78
2022/03/12 00:59:55;;;;;;;5.72;4.43;;;6.60;68.80;;;;;;5067473;28;20098;-78
2022/03/12 01:02:21;;;;;;;8.18;5.40;;;6.70;68.60;;;;;;5036875;28;20477;-78
2022/03/12 01:04:48;;;;;;;13.80;5.00;;;6.20;68.40;;;;;;5051078;28;20119;-80
2022/03/12 01:07:15;;;;;;;6.95;4.47;;;6.70;68.40;;;;;;5051313;28;20381;-80
2022/03/12 01:09:40;;;;;;;8.48;4.75;;;6.40;68.50;;;;;;5068794;28;20480;-78
2022/03/12 01:12:08;;;;;;;8.65;4.60;;;6.40;68.40;;;;;;5072474;28;20051;-79
2022/03/12 01:14:38;;;;;;;9.55;4.45;;;6.70;68.20;;;;;;5053848;28;20047;-79
2022/03/12 01:17:05;;;;;;;8.63;4.93;;;7.80;69.20;;;;;;5070356;28;20365;-80
2022/03/12 01:19:34;;;;;;;7.75;4.88;;;6.20;68.10;;;;;;5050602;28;20040;-78
2022/03/12 01:22:02;;;;;;;7.00;4.57;;;6.40;68.30;;;;;;5054501;28;20044;-78
2022/03/12 01:24:31;;;;;;;7.38;4.68;;;6.60;68.30;;;;;;5067852;28;20053;-79
2022/03/12 01:26:57;;;;;;;13.13;5.10;;;6.30;68.00;;;;;;5049650;28;20064;-78
2022/03/12 01:29:25;;;;;;;7.15;4.68;;;6.60;68.10;;;;;;5042999;28;20033;-79
2022/03/12 01:31:51;;;;;;;6.90;4.53;;;6.70;68.40;;;;;;5074232;28;20513;-78
2022/03/12 01:34:19;;;;;;;16.38;5.47;;;6.30;68.00;;;;;;5049653;28;20048;-80
2022/03/12 01:36:45;;;;;;;9.52;4.68;;;7.70;69.10;;;;;;5051194;28;20045;-78
2022/03/12 01:39:10;;;;;;;7.57;4.45;;;6.30;68.40;;;;;;5066233;28;20118;-78
2022/03/12 01:41:40;;;;;;;8.20;4.65;;;7.10;69.40;;;;;;5056843;28;20036;-78
2022/03/12 01:44:07;;;;;;;8.65;5.50;;;8.20;68.80;;;;;;5050052;28;20056;-78
2022/03/12 01:46:46;;;;;;;5.90;4.88;;;6.30;68.10;;;;;;5050493;28;20037;-79
2022/03/12 01:49:17;;;;;;;10.50;5.03;;;6.60;67.60;;;;;;5068349;28;20049;-78
2022/03/12 01:51:45;;;;;;;7.00;5.43;;;8.60;69.10;;;;;;5056477;28;20086;-79
2022/03/12 01:54:12;;;;;;;7.95;5.00;;;6.10;67.60;;;;;;5049561;28;20459;-78
2022/03/12 01:56:38;;;;;;;9.63;5.40;;;6.20;67.50;;;;;;5051095;28;20124;-79
2022/03/12 01:59:05;;;;;;;10.90;4.80;;;6.10;67.70;;;;;;5050704;28;20051;-78
2022/03/12 02:01:32;;;;;;;9.07;5.03;;;6.50;67.70;;;;;;5055290;28;20040;-79
2022/03/12 02:04:04;;;;;;;6.68;4.43;;;6.70;67.70;;;;;;5056161;28;20040;-78
2022/03/12 02:06:30;;;;;;;7.82;4.88;;;6.70;68.20;;;;;;5062131;28;20127;-79
2022/03/12 02:08:59;;;;;;;13.23;4.35;;;8.40;69.10;;;;;;5048757;28;20044;-78
2022/03/12 02:11:29;;;;;;;11.43;5.07;;;7.90;68.80;;;;;;5050541;28;20040;-79
2022/03/12 02:13:59;;;;;;;9.82;4.75;;;8.70;69.50;;;;;;5042274;28;20124;-79
2022/03/12 02:16:26;;;;;;;6.15;5.32;;;7.70;68.80;;;;;;5048896;28;20068;-78
2022/03/12 02:18:52;;;;;;;9.82;4.93;;;7.20;68.40;;;;;;5054236;28;20044;-79
2022/03/12 02:21:40;;;;;;;5.10;4.25;;;6.20;68.20;;;;;;5066118;28;20537;-78
2022/03/12 02:24:09;;;;;;;7.95;4.90;;;6.70;68.20;;;;;;5078874;28;20040;-80
2022/03/12 02:26:42;;;;;;;7.93;5.28;;;6.60;68.40;;;;;;5068136;28;20044;-78
2022/03/12 02:29:12;;;;;;;11.93;4.82;;;6.60;68.90;;;;;;5049521;28;20127;-78
2022/03/12 02:31:45;;;;;;;6.95;4.75;;;6.20;68.30;;;;;;5050522;28;20051;-78
2022/03/12 02:34:12;;;;;;;5.50;4.22;;;6.20;68.50;;;;;;5049558;28;20044;-77
2022/03/12 02:36:39;;;;;;;10.10;5.45;;;6.30;69.40;;;;;;5066757;28;20043;-78
2022/03/12 02:39:07;;;;;;;9.57;5.05;;;6.50;68.60;;;;;;5049892;28;20037;-79
2022/03/12 02:41:33;;;;;;;7.95;4.40;;;8.20;69.80;;;;;;5049542;28;20036;-78
2022/03/12 02:43:59;;;;;;;7.45;5.20;;;5.90;68.60;;;;;;5065613;28;20062;-78
2022/03/12 02:46:27;;;;;;;7.63;4.82;;;6.20;69.00;;;;;;5049569;28;20029;-78
2022/03/12 02:48:53;;;;;;;8.75;5.05;;;6.50;68.80;;;;;;5033368;28;20047;-79
2022/03/12 02:51:21;;;;;;;8.15;4.95;;;7.90;69.90;;;;;;5067191;28;20033;-78
2022/03/12 02:53:50;;;;;;;7.00;4.72;;;6.50;69.00;;;;;;5053634;28;20068;-78
2022/03/12 02:56:16;;;;;;;10.60;4.88;;;6.30;69.30;;;;;;5072227;28;20119;-78
2022/03/12 02:58:41;;;;;;;8.10;5.25;;;6.00;68.50;;;;;;5053939;28;20127;-78
2022/03/12 03:01:08;;;;;;;6.47;4.50;;;6.30;69.10;;;;;;5071200;28;20115;-79
2022/03/12 03:03:35;;;;;;;5.65;4.65;;;6.60;69.30;;;;;;5083413;28;20484;-79
2022/03/12 03:06:01;;;;;;;7.13;4.28;;;6.50;69.10;;;;;;5078250;28;20391;-79
2022/03/12 03:08:28;;;;;;;6.18;4.85;;;6.20;69.00;;;;;;5070526;28;20047;-79
2022/03/12 03:10:58;;;;;;;6.90;4.75;;;6.10;69.30;;;;;;5068863;28;20094;-78
2022/03/12 03:13:37;;;;;;;10.02;4.55;;;6.30;68.80;;;;;;5054210;28;20067;-79
2022/03/12 03:16:24;;;;;;;8.60;5.28;;;6.60;68.90;;;;;;5053545;28;20079;-79
2022/03/12 03:18:52;;;;;;;7.53;4.75;;;6.50;69.20;;;;;;5048684;28;20135;-76
2022/03/12 03:21:20;;;;;;;6.38;4.72;;;6.10;68.70;;;;;;5052617;28;20056;-79
2022/03/12 03:23:46;;;;;;;6.63;4.90;;;6.50;69.00;;;;;;5073127;28;20171;-78
2022/03/12 03:26:14;;;;;;;9.07;4.90;;;6.30;69.10;;;;;;5055539;28;20543;-81
2022/03/12 03:28:41;;;;;;;9.10;5.43;;;6.50;69.30;;;;;;5070080;28;20053;-78
2022/03/12 03:31:07;;;;;;;10.80;5.22;;;6.10;69.10;;;;;;5052849;28;20323;-79
2022/03/12 03:33:33;;;;;;;7.70;4.82;;;6.50;69.40;;;;;;5069978;28;20054;-79
2022/03/12 03:35:59;;;;;;;7.57;4.90;;;6.50;69.50;;;;;;5057426;28;20071;-79
2022/03/12 03:38:25;;;;;;;7.32;5.00;;;6.10;69.60;;;;;;5070554;28;20080;-79
2022/03/12 03:40:51;;;;;;;7.45;5.10;;;6.60;69.70;;;;;;5069339;28;20043;-79
2022/03/12 03:43:22;;;;;;;6.22;5.35;;;6.10;69.20;;;;;;5052650;28;20051;-78
2022/03/12 03:45:52;;;;;;;9.23;5.43;;;6.50;69.30;;;;;;5069436;28;20123;-81
2022/03/12 03:48:20;;;;;;;7.65;4.60;;;6.30;69.00;;;;;;5052896;28;20046;-79
2022/03/12 03:50:48;;;;;;;8.38;5.40;;;5.60;68.80;;;;;;5069459;28;20048;-79
2022/03/12 03:53:17;;;;;;;6.35;5.10;;;6.00;69.10;;;;;;5051835;28;20036;-80
2022/03/12 03:55:43;;;;;;;8.32;4.93;;;8.30;70.20;;;;;;5058953;28;20045;-79
2022/03/12 03:58:12;;;;;;;7.05;5.10;;;6.10;69.30;;;;;;5053552;28;20051;-79
2022/03/12 04:00:38;;;;;;;12.35;5.80;;;8.30;70.40;;;;;;5068494;28;20514;-79
2022/03/12 04:03:04;;;;;;;7.93;5.53;;;6.50;70.20;;;;;;5067438;28;20036;-80
2022/03/12 04:05:39;;;;;;;6.95;5.38;;;6.50;70.30;;;;;;5057432;28;20574;-78
2022/03/12 04:08:07;;;;;;;11.88;5.00;;;6.40;70.40;;;;;;5051525;28;20036;-79
2022/03/12 04:10:34;;;;;;;4.95;4.45;;;6.00;70.20;;;;;;5052365;28;20132;-80
2022/03/12 04:13:00;;;;;;;8.50;5.50;;;6.00;70.30;;;;;;5067942;28;20452;-78
2022/03/12 04:15:26;;;;;;;8.13;5.15;;;5.40;70.30;;;;;;5052922;28;20051;-79
2022/03/12 04:17:53;;;;;;;6.18;5.32;;;6.30;70.80;;;;;;5052654;28;20032;-80
2022/03/12 04:20:20;;;;;;;8.23;5.20;;;7.50;71.20;;;;;;5051707;28;20040;-78
2022/03/12 04:22:51;;;;;;;12.45;5.57;;;5.90;70.70;;;;;;5068208;28;20044;-79
2022/03/12 04:25:18;;;;;;;8.45;5.45;;;8.50;72.20;;;;;;5036351;28;20041;-80
2022/03/12 04:27:44;;;;;;;12.10;5.32;;;6.00;71.30;;;;;;5052138;28;20094;-78
2022/03/12 04:30:12;;;;;;;7.90;5.55;;;7.90;72.40;;;;;;5068210;28;20064;-79
2022/03/12 04:32:39;;;;;;;7.32;5.00;;;6.30;71.10;;;;;;5051461;28;20044;-79
2022/03/12 04:35:05;;;;;;;7.40;5.30;;;5.70;70.60;;;;;;5053704;28;20041;-79
2022/03/12 04:37:34;;;;;;;8.45;4.97;;;6.20;71.30;;;;;;5051510;28;20033;-79
2022/03/12 04:39:59;;;;;;;8.88;5.35;;;5.90;70.80;;;;;;5047614;28;20041;-78
2022/03/12 04:42:25;;;;;;;10.10;4.72;;;6.20;71.30;;;;;;5067141;28;20349;-79
2022/03/12 04:44:51;;;;;;;10.45;5.68;;;7.10;72.10;;;;;;5071105;28;20178;-79
2022/03/12 04:47:21;;;;;;;6.72;5.03;;;7.70;72.50;;;;;;5051545;28;20090;-79
2022/03/12 04:49:49;;;;;;;11.55;5.15;;;6.20;71.50;;;;;;5051243;28;20040;-80
2022/03/12 04:52:15;;;;;;;9.93;5.00;;;7.20;72.80;;;;;;5069669;28;20047;-78
2022/03/12 04:54:41;;;;;;;10.30;5.43;;;6.20;71.60;;;;;;5055657;28;20040;-79
2022/03/12 04:57:07;;;;;;;6.72;4.82;;;5.80;71.50;;;;;;5072165;28;20048;-81
2022/03/12 04:59:32;;;;;;;7.63;5.55;;;5.90;71.50;;;;;;5051796;28;20032;-80
2022/03/12 05:01:58;;;;;;;7.32;5.18;;;6.20;71.70;;;;;;5050446;28;20087;-79
2022/03/12 05:04:24;;;;;;;7.82;5.50;;;8.30;72.90;;;;;;5101671;28;20036;-79
2022/03/12 05:06:49;;;;;;;12.02;5.70;;;8.00;72.70;;;;;;5068465;28;20066;-79
2022/03/12 05:09:15;;;;;;;8.05;5.68;;;6.40;71.60;;;;;;5079053;28;20491;-79
2022/03/12 05:11:41;;;;;;;8.65;5.47;;;6.20;71.10;;;;;;5050290;28;20098;-78
2022/03/12 05:14:10;;;;;;;7.25;5.00;;;6.30;71.00;;;;;;5051250;28;20106;-79
2022/03/12 05:16:36;;;;;;;6.72;5.60;;;7.20;70.90;;;;;;5068354;28;20037;-78
2022/03/12 05:19:06;;;;;;;6.78;5.28;;;7.30;70.60;;;;;;5067410;28;20185;-77
2022/03/12 05:21:34;;;;;;;7.45;5.38;;;8.00;70.60;;;;;;5051205;28;20506;-78
2022/03/12 05:23:59;;;;;;;8.02;4.88;;;8.20;70.10;;;;;;5067081;28;20849;-79
2022/03/12 05:26:26;;;;;;;8.82;5.50;;;6.40;69.30;;;;;;5059895;28;20071;-79
2022/03/12 05:28:51;;;;;;;7.25;5.45;;;7.80;70.20;;;;;;5050982;28;20045;-78
2022/03/12 05:31:17;;;;;;;9.80;4.90;;;6.50;68.90;;;;;;5050301;28;20536;-77
2022/03/12 05:33:43;;;;;;;8.05;5.05;;;8.00;70.10;;;;;;5067605;28;20048;-77
2022/03/12 05:36:09;;;;;;;7.35;5.03;;;6.30;69.80;;;;;;5051208;28;20036;-77
2022/03/12 05:38:36;;;;;;;7.97;4.88;;;8.70;71.40;;;;;;5067121;28;20110;-78
2022/03/12 05:41:11;;;;;;;6.85;5.18;;;6.30;70.00;;;;;;5050378;28;20119;-78
2022/03/12 05:43:40;;;;;;;15.82;4.80;;;6.40;70.50;;;;;;5051086;28;20040;-79
2022/03/12 05:46:06;;;;;;;7.10;5.65;;;7.20;71.40;;;;;;5066176;28;20579;-78
2022/03/12 05:48:33;;;;;;;7.18;5.28;;;6.40;72.20;;;;;;5050567;28;20131;-80
2022/03/12 05:50:59;;;;;;;6.72;5.50;;;5.70;72.30;;;;;;5050250;28;20063;-78
2022/03/12 05:53:26;;;;;;;7.88;5.90;;;6.40;74.30;;;;;;5049389;28;20086;-78
2022/03/12 05:55:53;;;;;;;7.25;6.03;;;5.90;74.70;;;;;;5050650;28;20400;-79
2022/03/12 05:58:19;;;;;;;100.10;53.15;;;6.00;75.40;;;;;;5050520;28;20048;-80
2022/03/12 06:00:47;;;;;;;23.40;14.15;;;6.30;75.60;;;;;;5065779;28;20124;-78
2022/03/12 06:03:13;;;;;;;9.23;6.20;;;6.40;75.70;;;;;;5066640;28;20044;-77
2022/03/12 06:05:43;;;;;;;8.68;5.47;;;6.20;75.30;;;;;;5060033;28;20037;-78
2022/03/12 06:08:12;;;;;;;8.15;5.07;;;7.10;76.10;;;;;;5055058;28;20036;-79
2022/03/12 06:10:38;;;;;;;7.72;5.53;;;5.80;74.70;;;;;;5049424;28;20055;-78
2022/03/12 06:13:06;;;;;;;12.27;5.00;;;6.10;74.40;;;;;;5040615;28;20123;-79
2022/03/12 06:15:33;;;;;;;6.82;5.40;;;5.20;73.90;;;;;;5041851;28;20036;-78
2022/03/12 06:17:58;;;;;;;11.05;4.85;;;6.00;74.30;;;;;;5045459;28;20145;-80
2022/03/12 06:20:24;;;;;;;9.10;5.53;;;6.30;73.90;;;;;;5059671;28;20147;-78
2022/03/12 06:22:52;;;;;;;7.28;5.68;;;5.80;74.50;;;;;;5066721;28;20052;-78
2022/03/12 06:25:18;;;;;;;11.23;6.10;;;5.80;74.60;;;;;;5049864;28;20124;-77
2022/03/12 06:27:53;;;;;;;7.53;5.38;;;5.90;74.70;;;;;;5065965;28;20056;-77
2022/03/12 06:30:27;;;;;;;9.43;4.72;;;6.00;75.20;;;;;;5049225;28;20048;-78
2022/03/12 06:32:55;;;;;;;9.25;5.30;;;6.20;75.60;;;;;;5050110;28;20090;-78
2022/03/12 06:35:20;;;;;;;7.32;4.88;;;6.10;75.80;;;;;;5071460;28;20125;-78
2022/03/12 06:37:46;;;;;;;9.30;5.63;;;5.90;75.90;;;;;;5049943;28;20500;-78
2022/03/12 06:40:14;;;;;;;10.10;5.93;;;6.00;75.90;;;;;;5067595;28;20072;-78
2022/03/12 06:42:45;;;;;;;10.90;5.55;;;7.80;76.80;;;;;;5049537;28;20133;-79
2022/03/12 06:45:13;;;;;;;9.45;5.18;;;6.10;76.60;;;;;;5065685;28;20052;-78
2022/03/12 06:47:39;;;;;;;6.32;5.18;;;6.00;76.10;;;;;;5050406;28;20037;-79
2022/03/12 06:50:11;;;;;;;7.93;4.72;;;5.90;76.30;;;;;;5065652;28;20085;-78
2022/03/12 06:52:40;;;;;;;9.15;5.68;;;6.00;75.90;;;;;;5037494;28;20081;-77
2022/03/12 06:55:09;;;;;;;10.23;5.55;;;6.00;75.90;;;;;;5049878;28;20428;-79
2022/03/12 06:57:36;;;;;;;28.80;14.95;;;6.00;76.10;;;;;;5044550;28;20407;-79
2022/03/12 07:00:03;;;;;;;45.13;26.83;;;5.70;75.80;;;;;;5045469;28;20037;-79
2022/03/12 07:02:29;;;;;;;9.32;6.55;;;7.00;77.00;;;;;;5066517;28;20044;-78
2022/03/12 07:04:54;;;;;;;8.15;5.75;;;6.10;75.90;;;;;;5046174;28;20036;-78
2022/03/12 07:07:20;;;;;;;6.68;5.70;;;5.70;76.00;;;;;;5049772;28;20127;-79
2022/03/12 07:09:46;;;;;;;9.25;5.32;;;6.00;76.00;;;;;;5059610;28;20052;-78
2022/03/12 07:12:11;;;;;;;66.82;42.00;;;6.00;76.10;;;;;;5048046;28;20032;-79
2022/03/12 07:14:37;;;;;;;21.30;12.52;;;8.00;77.30;;;;;;5044109;28;20415;-78
2022/03/12 07:17:03;;;;;;;9.05;5.35;;;6.20;76.00;;;;;;5042498;28;20447;-80
2022/03/12 07:19:29;;;;;;;7.63;5.13;;;6.20;75.70;;;;;;5067084;28;20278;-78
2022/03/12 07:21:54;;;;;;;9.57;4.90;;;8.00;76.60;;;;;;5047373;28;20472;-78
2022/03/12 07:24:20;;;;;;;7.05;5.30;;;6.20;76.30;;;;;;5063859;28;20685;-78
2022/03/12 07:26:45;;;;;;;6.85;5.53;;;6.20;76.70;;;;;;5049007;28;20403;-78
2022/03/12 07:29:12;;;;;;;7.20;5.45;;;8.30;77.60;;;;;;5049230;28;20048;-78
2022/03/12 07:31:39;;;;;;;8.30;5.50;;;6.10;75.40;;;;;;5046715;28;20391;-78
2022/03/12 07:34:05;;;;;;;8.10;6.00;;;6.10;75.10;;;;;;5065903;28;20365;-77
2022/03/12 07:36:31;;;;;;;7.15;5.68;;;6.10;75.20;;;;;;5062579;28;20093;-79
2022/03/12 07:38:58;;;;;;;10.88;5.97;;;5.80;75.00;;;;;;5046600;28;20036;-78
2022/03/12 07:41:25;;;;;;;10.35;5.55;;;6.20;75.40;;;;;;5069858;28;20097;-78
2022/03/12 07:43:52;;;;;;;8.40;5.80;;;6.10;75.20;;;;;;5049086;28;20132;-77
2022/03/12 07:46:21;;;;;;;6.75;5.72;;;6.60;75.90;;;;;;5053047;28;20032;-78
2022/03/12 07:48:49;;;;;;;7.82;6.18;;;6.60;75.50;;;;;;5069895;28;20041;-77
2022/03/12 07:51:14;;;;;;;8.60;6.18;;;6.60;75.60;;;;;;5053202;28;20121;-76
2022/03/12 07:53:40;;;;;;;8.10;6.38;;;6.20;75.90;;;;;;5052566;28;20480;-77
2022/03/12 07:56:07;;;;;;;11.82;6.03;;;6.40;76.40;;;;;;5048105;28;20090;-78
2022/03/12 07:58:34;;;;;;;7.72;5.82;;;6.30;75.80;;;;;;5054167;28;20032;-77
2022/03/12 08:01:00;;;;;;;9.98;6.30;;;6.90;76.10;;;;;;5062664;28;20032;-78
2022/03/12 08:03:26;;;;;;;10.98;6.20;;;6.50;75.80;;;;;;5067479;28;20041;-78
2022/03/12 08:05:52;;;;;;;10.05;6.35;;;6.70;75.90;;;;;;5051372;28;20050;-77
2022/03/12 08:08:18;;;;;;;11.40;6.45;;;7.00;76.00;;;;;;5064853;28;20119;-78
2022/03/12 08:13:29;;;;;;;15.25;6.70;;;7.40;76.10;;;;;;5063205;28;20048;-76
2022/03/12 08:15:55;;;;;;;10.48;6.97;;;7.20;76.00;;;;;;5039888;28;20040;-78
2022/03/12 08:18:22;;;;;;;11.13;7.05;;;7.20;76.30;;;;;;5045856;28;20040;-76
2022/03/12 08:20:48;;;;;;;9.18;6.35;;;7.30;76.30;;;;;;5062461;28;20060;-78
2022/03/12 08:23:14;;;;;;;9.77;7.07;;;7.20;75.90;;;;;;5046763;28;20166;-77
2022/03/12 08:25:40;;;;;;;22.48;13.93;;;7.50;76.00;;;;;;4699148;28;9999995;-78
2022/03/12 08:28:06;;;;;;;11.68;6.88;;;7.00;75.90;;;;;;5079926;28;20048;-78
2022/03/12 08:30:33;;;;;;;11.43;7.10;;;7.80;76.00;;;;;;5038443;28;20053;-77
2022/03/12 08:32:59;;;;;;;12.85;7.07;;;7.60;76.30;;;;;;5048873;28;20051;-78
2022/03/12 08:35:24;;;;;;;7.57;5.78;;;7.50;76.70;;;;;;5046854;28;20048;-78
2022/03/12 08:37:50;;;;;;;11.68;7.15;;;9.70;78.10;;;;;;5065641;28;20044;-78
2022/03/12 08:40:17;;;;;;;10.27;6.85;;;7.90;76.80;;;;;;5045912;28;20040;-78
2022/03/12 08:42:43;;;;;;;10.38;6.53;;;8.00;76.80;;;;;;5048532;28;20127;-78
2022/03/12 08:45:11;;;;;;;10.43;7.07;;;8.00;76.90;;;;;;5048781;28;20127;-78
2022/03/12 08:47:40;;;;;;;7.30;6.05;;;8.20;77.00;;;;;;5042372;28;20712;-78
2022/03/12 08:50:09;;;;;;;9.93;6.95;;;8.00;77.20;;;;;;5032577;28;20658;-78
2022/03/12 08:52:39;;;;;;;10.02;7.45;;;8.20;77.60;;;;;;5032661;28;20510;-78
2022/03/12 08:55:06;;;;;;;9.88;8.02;;;8.30;78.10;;;;;;5061777;28;20040;-78
2022/03/12 08:57:32;;;;;;;11.48;7.05;;;8.40;78.30;;;;;;5050898;28;20451;-79
2022/03/12 08:59:57;;;;;;;8.48;7.22;;;7.90;78.10;;;;;;5066765;28;20044;-78
2022/03/12 09:02:23;;;;;;;11.60;7.03;;;9.70;79.80;;;;;;5062286;28;20041;-78
2022/03/12 09:04:50;;;;;;;11.07;8.98;;;8.60;79.70;;;;;;5063964;28;20071;-78
2022/03/12 09:07:15;;;;;;;10.13;6.50;;;8.60;79.90;;;;;;5067631;28;20508;-78
2022/03/12 09:09:41;;;;;;;20.48;8.20;;;8.60;80.30;;;;;;5062053;28;20044;-78
2022/03/12 09:12:08;;;;;;;9.30;6.50;;;8.50;80.50;;;;;;5061622;28;20037;-78
2022/03/12 09:14:36;;;;;;;9.45;7.00;;;8.90;80.60;;;;;;5077553;28;20082;-78
2022/03/12 09:17:03;;;;;;;14.98;7.55;;;8.90;80.50;;;;;;5064729;28;20047;-78
2022/03/12 09:19:29;;;;;;;8.52;7.00;;;9.00;81.00;;;;;;5062911;28;20040;-77
2022/03/12 09:21:58;;;;;;;10.65;7.65;;;9.20;81.40;;;;;;5055856;28;20032;-77
2022/03/12 09:24:25;;;;;;;10.88;7.28;;;9.20;81.30;;;;;;5079920;28;20175;-78
2022/03/12 09:26:50;;;;;;;10.45;7.10;;;11.10;82.30;;;;;;5045017;28;20107;-77
2022/03/12 09:29:16;;;;;;;8.88;7.35;;;9.40;81.40;;;;;;5065753;28;20962;-77
2022/03/12 09:31:41;;;;;;;11.98;7.80;;;9.50;81.90;;;;;;5038975;28;20088;-78
2022/03/12 09:34:08;;;;;;;12.60;7.30;;;9.50;82.30;;;;;;5066594;28;20037;-78
2022/03/12 09:36:35;;;;;;;12.18;7.78;;;9.60;81.90;;;;;;5063163;28;20162;-79
2022/03/12 09:39:03;;;;;;;11.77;7.53;;;9.40;82.10;;;;;;5054700;28;20043;-78
2022/03/12 09:41:29;;;;;;;10.68;7.43;;;9.70;82.80;;;;;;5063509;28;20109;-79
2022/03/12 09:43:56;;;;;;;9.55;7.15;;;9.70;83.50;;;;;;5067527;28;20738;-78
2022/03/12 09:46:22;;;;;;;15.77;8.38;;;9.80;83.40;;;;;;5062700;28;20047;-79
2022/03/12 09:48:47;;;;;;;13.63;7.75;;;11.40;85.30;;;;;;5067335;28;20040;-79
2022/03/12 09:51:14;;;;;;;10.65;7.85;;;10.00;84.50;;;;;;5068449;28;20158;-81
2022/03/12 09:53:40;;;;;;;14.82;8.05;;;10.10;84.80;;;;;;5043851;28;20112;-82
2022/03/12 09:56:06;;;;;;;11.55;8.38;;;10.40;85.50;;;;;;5056554;28;20044;-79
2022/03/12 09:58:32;;;;;;;12.93;8.43;;;10.20;85.70;;;;;;5080839;28;20063;-78
2022/03/12 10:00:57;;;;;;;10.35;7.70;;;11.20;86.60;;;;;;5081660;28;20041;-78
2022/03/12 10:03:23;;;;;;;10.23;7.40;;;10.10;86.70;;;;;;5049155;28;20040;-81
2022/03/12 10:05:49;;;;;;;10.55;7.75;;;10.20;87.90;;;;;;5062190;28;20064;-77
2022/03/12 10:08:16;;;;;;;9.88;7.40;;;10.30;89.50;;;;;;5050189;28;20488;-79
2022/03/12 10:10:41;;;;;;;11.95;7.45;;;10.70;89.60;;;;;;5029941;28;20079;-78
2022/03/12 10:13:07;;;;;;;9.13;7.80;;;12.00;90.30;;;;;;5051670;28;20712;-78
2022/03/12 10:15:33;;;;;;;11.20;7.50;;;10.80;90.10;;;;;;5071245;28;20051;-78
2022/03/12 10:18:00;;;;;;;12.48;7.50;;;12.10;90.70;;;;;;5060788;28;20040;-80
2022/03/12 10:20:25;;;;;;;12.65;7.85;;;11.00;90.50;;;;;;5049524;28;20043;-79
2022/03/12 10:22:54;;;;;;;10.40;7.82;;;11.10;90.70;;;;;;5065482;28;20387;-78
2022/03/12 10:25:19;;;;;;;14.75;7.95;;;10.60;90.50;;;;;;5063065;28;20424;-80
2022/03/12 10:27:45;;;;;;;10.43;7.53;;;11.20;90.80;;;;;;5056790;28;20060;-79
2022/03/12 10:30:12;;;;;;;9.35;7.53;;;11.30;90.90;;;;;;5065091;28;20652;-78
2022/03/12 10:32:48;;;;;;;8.68;7.68;;;12.80;91.50;;;;;;5031658;28;20047;-79
2022/03/12 10:35:19;;;;;;;11.25;7.60;;;11.40;91.40;;;;;;5062537;28;20048;-76
2022/03/12 10:37:48;;;;;;;8.85;6.88;;;11.70;91.60;;;;;;5066481;28;20571;-78
2022/03/12 10:40:20;;;;;;;11.15;7.97;;;11.80;91.80;;;;;;5042602;28;20048;-79
2022/03/12 10:42:49;;;;;;;12.20;7.22;;;11.80;91.90;;;;;;5058467;28;20503;-77
2022/03/12 10:45:21;;;;;;;10.57;6.40;;;11.90;92.20;;;;;;5062137;28;20544;-76
2022/03/12 10:47:49;;;;;;;8.85;6.53;;;12.00;92.60;;;;;;5063401;28;20128;-77
2022/03/12 10:50:17;;;;;;;7.22;6.32;;;12.10;92.70;;;;;;5060694;28;20094;-76
2022/03/12 10:52:49;;;;;;;10.50;6.25;;;12.10;92.90;;;;;;5061331;28;20045;-79
2022/03/12 10:55:22;;;;;;;7.82;6.20;;;12.10;93.20;;;;;;5061233;28;20072;-79
2022/03/12 10:57:58;;;;;;;9.85;7.38;;;12.20;93.00;;;;;;5048013;28;20049;-78
2022/03/12 11:00:25;;;;;;;10.43;6.97;;;12.20;93.10;;;;;;5044137;28;20045;-77
2022/03/12 11:03:00;;;;;;;7.82;6.07;;;12.20;93.40;;;;;;5041020;28;20036;-79
2022/03/12 11:05:34;;;;;;;8.05;6.53;;;12.20;93.60;;;;;;5065939;28;20106;-77
2022/03/12 11:08:26;;;;;;;7.88;5.80;;;12.50;93.30;;;;;;5066001;28;20040;-77
2022/03/12 11:10:58;;;;;;;8.45;6.57;;;12.40;93.50;;;;;;5062764;28;20097;-78
2022/03/12 11:13:48;;;;;;;8.15;6.00;;;12.50;93.60;;;;;;5067310;28;20431;-76
2022/03/12 11:16:20;;;;;;;8.57;6.00;;;12.50;93.60;;;;;;5071563;28;20072;-77
2022/03/12 11:18:52;;;;;;;9.23;6.55;;;12.40;93.80;;;;;;5048968;28;20519;-78
2022/03/12 11:21:43;;;;;;;34.15;24.17;;;12.70;93.70;;;;;;5065319;28;20476;-79
2022/03/12 11:24:23;;;;;;;8.80;6.13;;;12.70;93.90;;;;;;5061001;28;20496;-78
2022/03/12 11:26:58;;;;;;;9.82;7.18;;;12.90;93.90;;;;;;5075690;28;20056;-79
2022/03/12 11:29:26;;;;;;;8.95;5.32;;;12.90;93.90;;;;;;5077757;28;20124;-79
2022/03/12 11:31:54;;;;;;;9.50;6.07;;;13.10;93.50;;;;;;5063726;28;20047;-79
2022/03/12 11:34:32;;;;;;;6.90;5.00;;;13.00;93.70;;;;;;5034235;28;20385;-78
2022/03/12 11:36:59;;;;;;;12.00;5.93;;;13.10;93.60;;;;;;5068097;28;20749;-78
2022/03/12 11:39:36;;;;;;;7.93;5.75;;;13.10;93.60;;;;;;5066144;28;20094;-78
2022/03/12 11:42:09;;;;;;;7.85;5.05;;;13.10;93.90;;;;;;5097644;28;20040;-78
2022/03/12 11:44:35;;;;;;;6.47;4.82;;;13.20;94.20;;;;;;5062007;28;20136;-77
2022/03/12 11:47:02;;;;;;;8.00;4.68;;;13.30;93.60;;;;;;5065359;28;20528;-77
2022/03/12 11:49:28;;;;;;;7.65;6.28;;;13.40;93.40;;;;;;5062106;28;20476;-82
2022/03/12 11:51:55;;;;;;;5.75;4.72;;;13.50;93.10;;;;;;5089240;28;20098;-80
2022/03/12 11:54:20;;;;;;;91.47;70.10;;;13.50;93.20;;;;;;5059533;28;20040;-79
2022/03/12 11:56:46;;;;;;;6.68;5.13;;;13.50;93.30;;;;;;5039646;28;20474;-79
2022/03/12 11:59:12;;;;;;;4.72;3.95;;;13.60;93.00;;;;;;5056636;28;20124;-80
2022/03/12 12:01:41;;;;;;;9.32;4.95;;;13.60;92.50;;;;;;5055230;28;20120;-79
2022/03/12 12:04:07;;;;;;;6.28;5.07;;;13.50;92.60;;;;;;5056278;28;20056;-80
2022/03/12 12:06:34;;;;;;;8.63;5.20;;;13.70;92.70;;;;;;5059612;28;20127;-79
2022/03/12 12:09:02;;;;;;;6.78;4.75;;;13.80;92.70;;;;;;5070089;28;20056;-80
2022/03/12 12:11:31;;;;;;;9.30;5.07;;;13.80;92.80;;;;;;5071857;28;20041;-81
2022/03/12 12:13:58;;;;;;;7.30;4.35;;;13.90;93.00;;;;;;5062602;28;20094;-79
2022/03/12 12:16:25;;;;;;;5.47;4.03;;;13.90;92.60;;;;;;5056604;28;20769;-80
2022/03/12 12:18:51;;;;;;;5.05;4.13;;;14.00;91.90;;;;;;5066663;28;20056;-79
2022/03/12 12:21:17;;;;;;;5.88;3.67;;;13.90;91.90;;;;;;5079484;28;20052;-79
2022/03/12 12:23:44;;;;;;;6.43;3.97;;;13.80;92.00;;;;;;5053873;28;20055;-79
2022/03/12 12:26:11;;;;;;;8.95;4.25;;;13.70;92.30;;;;;;5070773;28;20040;-79
2022/03/12 12:28:53;;;;;;;21.13;16.95;;;13.70;92.40;;;;;;5071432;28;20056;-79
2022/03/12 12:31:24;;;;;;;5.68;4.35;;;14.80;92.40;;;;;;5065740;28;20072;-79
2022/03/12 12:33:51;;;;;;;6.40;4.88;;;13.80;92.00;;;;;;5070822;28;20129;-80
2022/03/12 12:36:18;;;;;;;6.25;4.47;;;13.90;92.20;;;;;;5070944;28;20095;-80
2022/03/12 12:39:12;;;;;;;4.10;3.70;;;13.90;92.10;;;;;;5056606;28;20590;-79
2022/03/12 12:41:58;;;;;;;8.88;4.05;;;13.90;92.40;;;;;;5065888;28;20068;-79
2022/03/12 12:44:42;;;;;;;7.30;4.07;;;13.90;92.30;;;;;;5056478;28;20052;-79
2022/03/12 12:47:15;;;;;;;4.53;4.05;;;13.90;91.70;;;;;;5084483;28;20167;-79
2022/03/12 12:49:43;;;;;;;5.10;3.78;;;13.90;91.60;;;;;;5073667;28;20496;-79
2022/03/12 12:52:10;;;;;;;5.65;3.97;;;13.90;91.40;;;;;;5056042;28;20049;-80
2022/03/12 12:54:58;;;;;;;5.25;4.10;;;13.90;91.50;;;;;;5052064;28;20496;-80
2022/03/12 12:57:44;;;;;;;8.35;4.10;;;13.90;91.50;;;;;;5066354;28;20047;-80